Time,TemperatureF,DewpointF,PressureIn,WindDirection,WindDirectionDegrees,WindSpeedMPH,WindSpeedGustMPH,Humidity,HourlyPrecipIn,Conditions,Clouds,dailyrainin,SoftwareType,DateUTC
2013-06-11 00:02:00,55.0,-99.9,29.96,WNW,299,5.0,8.0,-999,-99.99,,,-99.99,,2013-06-11 07:02:00,
2013-06-11 00:13:00,55.0,-99.9,29.96,NW,308,6.0,8.0,-999,-99.99,,,-99.99,,2013-06-11 07:13:00,
2013-06-11 00:22:00,55.0,-99.9,29.97,West,263,3.0,6.0,-999,-99.99,,,-99.99,,2013-06-11 07:22:00,
2013-06-11 00:32:00,55.0,-99.9,29.97,WNW,285,2.0,5.0,-999,-99.99,,,-99.99,,2013-06-11 07:32:00,
2013-06-11 00:42:00,55.0,-99.9,29.97,West,276,2.0,7.0,-999,-99.99,,,-99.99,,2013-06-11 07:42:00,
2013-06-11 00:52:00,55.0,-99.9,29.96,WSW,250,2.0,4.0,-999,-99.99,,,-99.99,,2013-06-11 07:52:00,
2013-06-11 01:03:00,55.0,-99.9,29.97,SW,232,3.0,4.0,-999,-99.99,,,-99.99,,2013-06-11 08:03:00,
2013-06-11 01:12:00,55.0,-99.9,29.97,SW,231,5.0,7.0,-999,-99.99,,,-99.99,,2013-06-11 08:12:00,
2013-06-11 01:22:00,55.0,-99.9,29.97,WSW,238,3.0,6.0,-999,-99.99,,,-99.99,,2013-06-11 08:22:00,
2013-06-11 01:32:00,55.0,-99.9,29.97,WSW,237,4.0,6.0,-999,-99.99,,,-99.99,,2013-06-11 08:32:00,
2013-06-11 01:42:00,55.0,-99.9,29.97,SW,233,4.0,7.0,-999,-99.99,,,-99.99,,2013-06-11 08:42:00,
2013-06-11 01:52:00,55.0,-99.9,29.96,SW,231,5.0,8.0,-999,-99.99,,,-99.99,,2013-06-11 08:52:00,
2013-06-11 02:02:00,55.0,-99.9,29.96,WSW,238,4.0,6.0,-999,-99.99,,,-99.99,,2013-06-11 09:02:00,
2013-06-11 02:12:00,55.0,-99.9,29.96,SW,236,3.0,5.0,-999,-99.99,,,-99.99,,2013-06-11 09:12:00,
2013-06-11 02:22:00,55.0,-99.9,29.96,SW,234,6.0,8.0,-999,-99.99,,,-99.99,,2013-06-11 09:22:00,
2013-06-11 02:33:00,56.0,-99.9,29.96,WSW,243,5.0,8.0,-999,-99.99,,,-99.99,,2013-06-11 09:33:00,
2013-06-11 02:43:00,56.0,-99.9,29.96,WSW,239,6.0,9.0,-999,-99.99,,,-99.99,,2013-06-11 09:43:00,
2013-06-11 02:53:00,56.0,-99.9,29.96,SW,228,6.0,9.0,-999,-99.99,,,-99.99,,2013-06-11 09:53:00,
2013-06-11 03:03:00,56.0,-99.9,29.96,WSW,240,8.0,11.0,-999,-99.99,,,-99.99,,2013-06-11 10:03:00,
2013-06-11 03:12:00,55.0,-99.9,29.96,SW,234,7.0,11.0,-999,-99.99,,,-99.99,,2013-06-11 10:12:00,
2013-06-11 03:23:00,55.0,-99.9,29.96,WSW,244,7.0,11.0,-999,-99.99,,,-99.99,,2013-06-11 10:23:00,
2013-06-11 03:33:00,55.0,-99.9,29.95,WSW,237,7.0,10.0,-999,-99.99,,,-99.99,,2013-06-11 10:33:00,
2013-06-11 03:43:00,55.0,-99.9,29.95,WSW,242,7.0,9.0,-999,-99.99,,,-99.99,,2013-06-11 10:43:00,
2013-06-11 03:52:00,55.0,-99.9,29.95,West,268,6.0,11.0,-999,-99.99,,,-99.99,,2013-06-11 10:52:00,
2013-06-11 04:02:00,55.0,-99.9,29.95,West,278,5.0,9.0,-999,-99.99,,,-99.99,,2013-06-11 11:02:00,
2013-06-11 04:12:00,55.0,-99.9,29.95,NW,304,1.0,7.0,-999,-99.99,,,-99.99,,2013-06-11 11:12:00,
2013-06-11 04:22:00,55.0,-99.9,29.95,East,84,1.0,4.0,-999,-99.99,,,-99.99,,2013-06-11 11:22:00,
2013-06-11 04:32:00,55.0,-99.9,29.95,West,259,4.0,7.0,-999,-99.99,,,-99.99,,2013-06-11 11:32:00,
2013-06-11 04:42:00,55.0,-99.9,29.95,West,259,5.0,8.0,-999,-99.99,,,-99.99,,2013-06-11 11:42:00,
2013-06-11 04:52:00,55.0,-99.9,29.95,West,266,4.0,7.0,-999,-99.99,,,-99.99,,2013-06-11 11:52:00,
2013-06-11 05:02:00,55.0,-99.9,29.95,West,266,5.0,8.0,-999,-99.99,,,-99.99,,2013-06-11 12:02:00,
2013-06-11 05:12:00,55.0,-99.9,29.95,West,278,6.0,9.0,-999,-99.99,,,-99.99,,2013-06-11 12:12:00,
2013-06-11 05:22:00,55.0,-99.9,29.95,NW,306,4.0,7.0,-999,-99.99,,,-99.99,,2013-06-11 12:22:00,
2013-06-11 05:32:00,55.0,-99.9,29.96,WSW,245,4.0,5.0,-999,-99.99,,,-99.99,,2013-06-11 12:32:00,
2013-06-11 05:42:00,55.0,-99.9,29.95,WSW,240,2.0,6.0,-999,-99.99,,,-99.99,,2013-06-11 12:42:00,
2013-06-11 05:52:00,55.0,-99.9,29.96,WSW,241,4.0,7.0,-999,-99.99,,,-99.99,,2013-06-11 12:52:00,
2013-06-11 06:02:00,55.0,-99.9,29.96,West,265,4.0,8.0,-999,-99.99,,,-99.99,,2013-06-11 13:02:00,
2013-06-11 06:12:00,55.0,-99.9,29.96,WSW,241,5.0,6.0,-999,-99.99,,,-99.99,,2013-06-11 13:12:00,
2013-06-11 06:22:00,55.0,-99.9,29.96,West,270,4.0,6.0,-999,-99.99,,,-99.99,,2013-06-11 13:22:00,
2013-06-11 06:32:00,55.0,-99.9,29.97,West,281,5.0,9.0,-999,-99.99,,,-99.99,,2013-06-11 13:32:00,
2013-06-11 06:42:00,55.0,-99.9,29.97,WNW,287,5.0,7.0,-999,-99.99,,,-99.99,,2013-06-11 13:42:00,
2013-06-11 06:52:00,55.0,-99.9,29.97,WNW,299,6.0,9.0,-999,-99.99,,,-99.99,,2013-06-11 13:52:00,
2013-06-11 07:02:00,55.0,-99.9,29.97,WNW,295,4.0,7.0,-999,-99.99,,,-99.99,,2013-06-11 14:02:00,
2013-06-11 07:12:00,55.0,-99.9,29.97,WNW,283,3.0,8.0,-999,-99.99,,,-99.99,,2013-06-11 14:12:00,
2013-06-11 07:22:00,55.0,-99.9,29.97,West,261,6.0,7.0,-999,-99.99,,,-99.99,,2013-06-11 14:22:00,
2013-06-11 07:32:00,55.0,-99.9,29.97,WSW,243,5.0,8.0,-999,-99.99,,,-99.99,,2013-06-11 14:32:00,
2013-06-11 07:42:00,55.0,-99.9,29.98,West,266,5.0,8.0,-999,-99.99,,,-99.99,,2013-06-11 14:42:00,
2013-06-11 07:53:00,55.0,-99.9,29.98,West,272,5.0,8.0,-999,-99.99,,,-99.99,,2013-06-11 14:53:00,
2013-06-11 08:02:00,55.0,-99.9,29.98,West,269,6.0,13.0,-999,-99.99,,,-99.99,,2013-06-11 15:02:00,
2013-06-11 08:12:00,55.0,-99.9,29.98,West,281,7.0,11.0,-999,-99.99,,,-99.99,,2013-06-11 15:12:00,
2013-06-11 08:22:00,55.0,-99.9,29.99,West,271,9.0,13.0,-999,-99.99,,,-99.99,,2013-06-11 15:22:00,
2013-06-11 08:33:00,55.0,-99.9,29.99,West,267,7.0,13.0,-999,-99.99,,,-99.99,,2013-06-11 15:33:00,
2013-06-11 08:43:00,55.0,-99.9,30.00,West,270,8.0,14.0,-999,-99.99,,,-99.99,,2013-06-11 15:43:00,
2013-06-11 08:53:00,55.0,-99.9,30.00,West,270,8.0,11.0,-999,-99.99,,,-99.99,,2013-06-11 15:53:00,
2013-06-11 09:03:00,55.0,-99.9,30.01,West,272,8.0,12.0,-999,-99.99,,,-99.99,,2013-06-11 16:03:00,
2013-06-11 09:13:00,55.0,-99.9,30.01,West,265,9.0,12.0,-999,-99.99,,,-99.99,,2013-06-11 16:13:00,
2013-06-11 09:23:00,55.0,-99.9,30.01,West,269,6.0,11.0,-999,-99.99,,,-99.99,,2013-06-11 16:23:00,
2013-06-11 09:33:00,55.0,-99.9,30.01,West,265,6.0,12.0,-999,-99.99,,,-99.99,,2013-06-11 16:33:00,
2013-06-11 09:42:00,56.0,-99.9,30.01,WSW,238,6.0,11.0,-999,-99.99,,,-99.99,,2013-06-11 16:42:00,
2013-06-11 09:53:00,56.0,-99.9,30.01,WSW,248,6.0,12.0,-999,-99.99,,,-99.99,,2013-06-11 16:53:00,
2013-06-11 10:02:00,56.0,-99.9,30.01,WSW,240,7.0,10.0,-999,-99.99,,,-99.99,,2013-06-11 17:02:00,
2013-06-11 10:12:00,56.0,-99.9,30.01,WSW,253,6.0,11.0,-999,-99.99,,,-99.99,,2013-06-11 17:12:00,
2013-06-11 10:22:00,57.0,-99.9,30.01,WSW,241,9.0,14.0,-999,-99.99,,,-99.99,,2013-06-11 17:22:00,
2013-06-11 10:32:00,57.0,-99.9,30.01,WSW,245,9.0,13.0,-999,-99.99,,,-99.99,,2013-06-11 17:32:00,
2013-06-11 10:43:00,56.0,-99.9,30.01,SW,236,11.0,15.0,-999,-99.99,,,-99.99,,2013-06-11 17:43:00,
2013-06-11 10:53:00,56.0,-99.9,30.01,West,270,11.0,15.0,-999,-99.99,,,-99.99,,2013-06-11 17:53:00,
2013-06-11 11:02:00,56.0,-99.9,30.01,West,270,10.0,15.0,-999,-99.99,,,-99.99,,2013-06-11 18:02:00,
2013-06-11 11:12:00,56.0,-99.9,30.01,NW,309,9.0,13.0,-999,-99.99,,,-99.99,,2013-06-11 18:12:00,
2013-06-11 11:22:00,56.0,-99.9,30.01,NW,309,10.0,14.0,-999,-99.99,,,-99.99,,2013-06-11 18:22:00,
2013-06-11 11:33:00,56.0,-99.9,30.02,WNW,303,9.0,13.0,-999,-99.99,,,-99.99,,2013-06-11 18:33:00,
2013-06-11 11:43:00,56.0,-99.9,30.02,WNW,287,9.0,14.0,-999,-99.99,,,-99.99,,2013-06-11 18:43:00,
2013-06-11 11:52:00,56.0,-99.9,30.02,WNW,295,10.0,15.0,-999,-99.99,,,-99.99,,2013-06-11 18:52:00,
2013-06-11 12:03:00,56.0,-99.9,30.02,WNW,295,10.0,15.0,-999,-99.99,,,-99.99,,2013-06-11 19:03:00,
2013-06-11 12:22:00,58.0,-99.9,30.02,West,280,6.0,11.0,-999,-99.99,,,-99.99,,2013-06-11 19:22:00,
2013-06-11 12:33:00,57.0,-99.9,30.02,WSW,256,8.0,13.0,-999,-99.99,,,-99.99,,2013-06-11 19:33:00,
2013-06-11 12:42:00,57.0,-99.9,30.02,WSW,246,10.0,12.0,-999,-99.99,,,-99.99,,2013-06-11 19:42:00,
2013-06-11 12:53:00,57.0,-99.9,30.01,WSW,241,8.0,13.0,-999,-99.99,,,-99.99,,2013-06-11 19:53:00,
2013-06-11 13:03:00,57.0,-99.9,30.01,WSW,241,8.0,13.0,-999,-99.99,,,-99.99,,2013-06-11 20:03:00,
2013-06-11 13:12:00,57.0,-99.9,30.01,WSW,241,8.0,13.0,-999,-99.99,,,-99.99,,2013-06-11 20:12:00,
2013-06-11 13:32:00,58.0,-99.9,30.01,WSW,240,7.0,14.0,-999,-99.99,,,-99.99,,2013-06-11 20:32:00,
2013-06-11 13:42:00,58.0,-99.9,30.01,WSW,245,9.0,15.0,-999,-99.99,,,-99.99,,2013-06-11 20:42:00,
2013-06-11 13:52:00,58.0,-99.9,30.01,West,267,9.0,16.0,-999,-99.99,,,-99.99,,2013-06-11 20:52:00,
2013-06-11 14:02:00,58.0,-99.9,30.00,West,269,12.0,19.0,-999,-99.99,,,-99.99,,2013-06-11 21:02:00,
2013-06-11 14:12:00,58.0,-99.9,30.00,West,261,10.0,15.0,-999,-99.99,,,-99.99,,2013-06-11 21:12:00,
2013-06-11 14:22:00,58.0,-99.9,30.00,West,266,11.0,17.0,-999,-99.99,,,-99.99,,2013-06-11 21:22:00,
2013-06-11 14:33:00,58.0,-99.9,29.99,WSW,247,11.0,15.0,-999,-99.99,,,-99.99,,2013-06-11 21:33:00,
2013-06-11 14:42:00,58.0,-99.9,29.99,WSW,247,11.0,15.0,-999,-99.99,,,-99.99,,2013-06-11 21:42:00,
2013-06-11 14:53:00,58.0,-99.9,29.99,WSW,247,11.0,15.0,-999,-99.99,,,-99.99,,2013-06-11 21:53:00,
2013-06-11 15:13:00,59.0,-99.9,29.98,West,270,11.0,19.0,-999,-99.99,,,-99.99,,2013-06-11 22:13:00,
2013-06-11 15:22:00,58.0,-99.9,29.97,West,271,15.0,58.0,-999,-99.99,,,-99.99,,2013-06-11 22:22:00,
2013-06-11 15:33:00,58.0,-99.9,29.97,West,277,15.0,21.0,-999,-99.99,,,-99.99,,2013-06-11 22:33:00,
2013-06-11 15:42:00,58.0,-99.9,29.97,West,277,15.0,21.0,-999,-99.99,,,-99.99,,2013-06-11 22:42:00,
2013-06-11 15:52:00,58.0,-99.9,29.97,West,277,15.0,21.0,-999,-99.99,,,-99.99,,2013-06-11 22:52:00,
2013-06-11 16:12:00,59.0,-99.9,29.96,West,274,15.0,21.0,-999,-99.99,,,-99.99,,2013-06-11 23:12:00,
2013-06-11 16:22:00,59.0,-99.9,29.97,West,261,12.0,22.0,-999,-99.99,,,-99.99,,2013-06-11 23:22:00,
2013-06-11 16:32:00,59.0,-99.9,29.97,WSW,258,13.0,22.0,-999,-99.99,,,-99.99,,2013-06-11 23:32:00,
2013-06-11 16:42:00,59.0,-99.9,29.96,West,260,14.0,21.0,-999,-99.99,,,-99.99,,2013-06-11 23:42:00,
2013-06-11 16:52:00,59.0,-99.9,29.96,West,261,16.0,21.0,-999,-99.99,,,-99.99,,2013-06-11 23:52:00,
2013-06-11 17:02:00,59.0,-99.9,29.96,West,264,13.0,38.0,-999,-99.99,,,-99.99,,2013-06-12 00:02:00,
2013-06-11 17:12:00,59.0,-99.9,29.96,West,267,14.0,19.0,-999,-99.99,,,-99.99,,2013-06-12 00:12:00,
2013-06-11 17:22:00,59.0,-99.9,29.95,WSW,255,13.0,19.0,-999,-99.99,,,-99.99,,2013-06-12 00:22:00,
2013-06-11 17:32:00,59.0,-99.9,29.95,WSW,245,15.0,22.0,-999,-99.99,,,-99.99,,2013-06-12 00:32:00,
2013-06-11 17:42:00,58.0,-99.9,29.95,WSW,249,13.0,21.0,-999,-99.99,,,-99.99,,2013-06-12 00:42:00,
2013-06-11 17:52:00,58.0,-99.9,29.95,WSW,250,14.0,23.0,-999,-99.99,,,-99.99,,2013-06-12 00:52:00,
2013-06-11 18:02:00,58.0,-99.9,29.95,WSW,249,13.0,19.0,-999,-99.99,,,-99.99,,2013-06-12 01:02:00,
2013-06-11 18:12:00,58.0,-99.9,29.94,WSW,255,13.0,21.0,-999,-99.99,,,-99.99,,2013-06-12 01:12:00,
2013-06-11 18:22:00,58.0,-99.9,29.94,WSW,249,12.0,26.0,-999,-99.99,,,-99.99,,2013-06-12 01:22:00,
2013-06-11 18:32:00,58.0,-99.9,29.94,WSW,248,13.0,20.0,-999,-99.99,,,-99.99,,2013-06-12 01:32:00,
2013-06-11 18:42:00,58.0,-99.9,29.94,WSW,250,15.0,21.0,-999,-99.99,,,-99.99,,2013-06-12 01:42:00,
2013-06-11 18:52:00,57.0,-99.9,29.93,WSW,240,10.0,17.0,-999,-99.99,,,-99.99,,2013-06-12 01:52:00,
2013-06-11 19:02:00,57.0,-99.9,29.93,WSW,247,14.0,19.0,-999,-99.99,,,-99.99,,2013-06-12 02:02:00,
2013-06-11 19:12:00,57.0,-99.9,29.93,WSW,240,14.0,20.0,-999,-99.99,,,-99.99,,2013-06-12 02:12:00,
2013-06-11 19:22:00,58.0,-99.9,29.92,WSW,248,13.0,18.0,-999,-99.99,,,-99.99,,2013-06-12 02:22:00,
2013-06-11 19:32:00,58.0,-99.9,29.92,West,265,13.0,23.0,-999,-99.99,,,-99.99,,2013-06-12 02:32:00,
2013-06-11 19:42:00,58.0,-99.9,29.92,West,259,14.0,18.0,-999,-99.99,,,-99.99,,2013-06-12 02:42:00,
2013-06-11 19:52:00,58.0,-99.9,29.92,WSW,254,13.0,18.0,-999,-99.99,,,-99.99,,2013-06-12 02:52:00,
2013-06-11 20:02:00,58.0,-99.9,29.92,WSW,253,13.0,19.0,-999,-99.99,,,-99.99,,2013-06-12 03:02:00,
2013-06-11 20:12:00,58.0,-99.9,29.92,WSW,253,17.0,22.0,-999,-99.99,,,-99.99,,2013-06-12 03:12:00,
2013-06-11 20:22:00,57.0,-99.9,29.91,WSW,251,14.0,21.0,-999,-99.99,,,-99.99,,2013-06-12 03:22:00,
2013-06-11 20:33:00,57.0,-99.9,29.91,WSW,250,17.0,23.0,-999,-99.99,,,-99.99,,2013-06-12 03:33:00,
2013-06-11 20:43:00,57.0,-99.9,29.91,WSW,252,13.0,38.0,-999,-99.99,,,-99.99,,2013-06-12 03:43:00,
2013-06-11 20:53:00,57.0,-99.9,29.91,WSW,242,16.0,21.0,-999,-99.99,,,-99.99,,2013-06-12 03:53:00,
2013-06-11 21:03:00,56.0,-99.9,29.91,WSW,244,17.0,23.0,-999,-99.99,,,-99.99,,2013-06-12 04:03:00,
2013-06-11 21:13:00,56.0,-99.9,29.91,WSW,248,15.0,21.0,-999,-99.99,,,-99.99,,2013-06-12 04:13:00,
2013-06-11 21:23:00,56.0,-99.9,29.91,WSW,239,14.0,23.0,-999,-99.99,,,-99.99,,2013-06-12 04:23:00,
2013-06-11 21:34:00,56.0,-99.9,29.91,WSW,243,17.0,21.0,-999,-99.99,,,-99.99,,2013-06-12 04:34:00,
2013-06-11 21:43:00,56.0,-99.9,29.92,SW,224,8.0,13.0,-999,-99.99,,,-99.99,,2013-06-12 04:43:00,
2013-06-11 21:53:00,56.0,-99.9,29.92,SW,224,11.0,15.0,-999,-99.99,,,-99.99,,2013-06-12 04:53:00,
2013-06-11 22:03:00,56.0,-99.9,29.93,SW,227,11.0,17.0,-999,-99.99,,,-99.99,,2013-06-12 05:03:00,
2013-06-11 22:12:00,55.0,-99.9,29.93,SW,227,10.0,15.0,-999,-99.99,,,-99.99,,2013-06-12 05:12:00,
2013-06-11 22:22:00,55.0,-99.9,29.94,SW,230,6.0,12.0,-999,-99.99,,,-99.99,,2013-06-12 05:22:00,
2013-06-11 22:32:00,55.0,-99.9,29.94,SW,226,7.0,13.0,-999,-99.99,,,-99.99,,2013-06-12 05:32:00,
2013-06-11 22:43:00,55.0,-99.9,29.94,SW,231,7.0,12.0,-999,-99.99,,,-99.99,,2013-06-12 05:43:00,
2013-06-11 22:52:00,55.0,-99.9,29.94,SW,231,9.0,13.0,-999,-99.99,,,-99.99,,2013-06-12 05:52:00,
2013-06-11 23:02:00,55.0,-99.9,29.94,WSW,244,7.0,13.0,-999,-99.99,,,-99.99,,2013-06-12 06:02:00,
2013-06-11 23:12:00,55.0,-99.9,29.93,SW,235,7.0,12.0,-999,-99.99,,,-99.99,,2013-06-12 06:12:00,
2013-06-11 23:22:00,54.0,-99.9,29.93,SW,236,5.0,10.0,-999,-99.99,,,-99.99,,2013-06-12 06:22:00,
2013-06-11 23:32:00,55.0,-99.9,29.93,WSW,246,6.0,10.0,-999,-99.99,,,-99.99,,2013-06-12 06:32:00,
2013-06-11 23:42:00,54.0,-99.9,29.94,WSW,241,5.0,9.0,-999,-99.99,,,-99.99,,2013-06-12 06:42:00,
2013-06-11 23:52:00,54.0,-99.9,29.93,SW,222,5.0,10.0,-999,-99.99,,,-99.99,,2013-06-12 06:52:00,